createdAt,value
2023-02-19T00:01:10.651Z,4.36
2023-02-19T00:03:53.399Z,4.29
2023-02-19T00:06:27.029Z,4.23
2023-02-19T00:08:59.842Z,4.20
2023-02-19T00:11:34.340Z,4.17
2023-02-19T00:14:07.553Z,4.09
2023-02-19T00:16:41.434Z,4.03
2023-02-19T00:19:16.878Z,3.98
2023-02-19T00:21:49.725Z,3.92
2023-02-19T00:24:22.604Z,3.86
2023-02-19T00:26:54.842Z,3.81
2023-02-19T00:29:27.022Z,3.84
2023-02-19T00:31:59.985Z,3.83
2023-02-19T00:34:35.241Z,3.83
2023-02-19T00:37:07.518Z,3.84
2023-02-19T00:39:39.757Z,3.85
2023-02-19T00:42:12.031Z,3.83
2023-02-19T00:44:44.274Z,3.79
2023-02-19T00:47:17.545Z,3.77
2023-02-19T00:49:49.770Z,3.73
2023-02-19T00:52:22.118Z,3.67
2023-02-19T00:54:54.433Z,3.62
2023-02-19T00:57:26.792Z,3.56
2023-02-19T00:59:59.058Z,3.50
2023-02-19T01:02:31.326Z,3.45
2023-02-19T01:05:03.564Z,3.48
2023-02-19T01:07:38.421Z,3.47
2023-02-19T01:10:11.340Z,3.47
2023-02-19T01:12:43.549Z,3.48
2023-02-19T01:15:15.716Z,3.48
2023-02-19T01:17:48.148Z,3.46
2023-02-19T01:20:20.983Z,3.45
2023-02-19T01:22:53.526Z,3.41
2023-02-19T01:25:25.781Z,3.40
2023-02-19T01:27:57.938Z,3.39
2023-02-19T01:30:30.318Z,3.37
2023-02-19T01:33:02.613Z,3.33
2023-02-19T01:35:35.471Z,3.29
2023-02-19T01:38:08.687Z,3.28
2023-02-19T01:40:41.035Z,3.32
2023-02-19T01:43:17.911Z,3.30
2023-02-19T01:45:50.101Z,3.32
2023-02-19T01:48:25.764Z,3.34
2023-02-19T01:51:06.556Z,3.38
2023-02-19T01:53:43.098Z,3.39
2023-02-19T01:56:17.523Z,3.41
2023-02-19T01:58:50.276Z,3.43
2023-02-19T02:01:22.550Z,3.41
2023-02-19T02:03:55.230Z,3.39
2023-02-19T02:06:31.403Z,3.38
2023-02-19T02:09:22.119Z,3.35
2023-02-19T02:11:55.186Z,3.32
2023-02-19T02:14:29.915Z,3.28
2023-02-19T02:17:11.711Z,3.27
2023-02-19T02:20:10.840Z,3.35
2023-02-19T02:22:49.508Z,3.37
2023-02-19T02:26:02.278Z,3.40
2023-02-19T02:29:05.498Z,3.43
2023-02-19T02:31:42.353Z,3.45
2023-02-19T02:34:19.999Z,3.43
2023-02-19T02:36:56.447Z,3.43
2023-02-19T02:39:32.371Z,3.43
2023-02-19T02:42:22.291Z,3.40
2023-02-19T02:45:34.607Z,3.40
2023-02-19T02:48:17.024Z,3.39
2023-02-19T02:50:55.443Z,3.36
2023-02-19T02:53:51.520Z,3.33
2023-02-19T02:56:26.117Z,3.31
2023-02-19T02:59:00.513Z,3.28
2023-02-19T03:02:10.100Z,3.32
2023-02-19T03:05:09.440Z,3.34
2023-02-19T03:07:48.173Z,3.38
2023-02-19T03:10:33.719Z,3.40
2023-02-19T03:13:29.520Z,3.41
2023-02-19T03:16:27.088Z,3.39
2023-02-19T03:19:20.394Z,3.40
2023-02-19T03:21:59.435Z,3.42
2023-02-19T03:24:54.478Z,3.40
2023-02-19T03:27:31.669Z,3.39
2023-02-19T03:30:10.765Z,3.35
2023-02-19T03:32:48.087Z,3.30
2023-02-19T03:35:24.580Z,3.25
2023-02-19T03:38:06.066Z,3.23
2023-02-19T03:40:44.834Z,3.28
2023-02-19T03:43:22.637Z,3.29
2023-02-19T03:46:06.525Z,3.30
2023-02-19T03:48:42.625Z,3.33
2023-02-19T03:51:28.815Z,3.35
2023-02-19T03:54:12.770Z,3.34
2023-02-19T03:56:53.558Z,3.34
2023-02-19T03:59:35.869Z,3.34
2023-02-19T04:02:13.294Z,3.34
2023-02-19T04:04:50.598Z,3.30
2023-02-19T04:07:23.964Z,3.29
2023-02-19T04:09:57.437Z,3.26
2023-02-19T04:12:30.837Z,3.25
2023-02-19T04:15:08.352Z,3.32
2023-02-19T04:17:46.949Z,3.33
2023-02-19T04:20:20.592Z,3.35
2023-02-19T04:22:53.000Z,3.39
2023-02-19T04:25:27.677Z,3.43
2023-02-19T04:28:00.768Z,3.43
2023-02-19T04:30:33.138Z,3.46
2023-02-19T04:33:05.577Z,3.49
2023-02-19T04:35:38.013Z,3.48
2023-02-19T04:38:10.258Z,3.45
2023-02-19T04:40:42.706Z,3.46
2023-02-19T04:43:14.923Z,3.46
2023-02-19T04:45:47.357Z,3.42
2023-02-19T04:48:19.517Z,3.41
2023-02-19T04:50:51.720Z,3.47
2023-02-19T04:53:23.952Z,3.49
2023-02-19T04:55:56.098Z,3.50
2023-02-19T04:58:28.390Z,3.53
2023-02-19T05:01:00.539Z,3.55
2023-02-19T05:03:32.805Z,3.53
2023-02-19T05:06:08.206Z,3.51
2023-02-19T05:08:41.314Z,3.51
2023-02-19T05:11:14.657Z,3.50
2023-02-19T05:13:46.942Z,3.48
2023-02-19T05:16:19.636Z,3.47
2023-02-19T05:18:51.879Z,3.46
2023-02-19T05:21:24.153Z,3.44
2023-02-19T05:23:56.457Z,3.45
2023-02-19T05:26:29.413Z,3.52
2023-02-19T05:29:02.605Z,3.52
2023-02-19T05:31:35.020Z,3.54
2023-02-19T05:34:07.424Z,3.56
2023-02-19T05:36:40.620Z,3.56
2023-02-19T05:39:14.143Z,3.54
2023-02-19T05:41:46.347Z,3.54
2023-02-19T05:44:18.542Z,3.54
2023-02-19T05:46:50.699Z,3.55
2023-02-19T05:49:22.969Z,3.51
2023-02-19T05:51:55.852Z,3.48
2023-02-19T05:54:29.294Z,3.47
2023-02-19T05:57:01.523Z,3.48
2023-02-19T05:59:33.766Z,3.48
2023-02-19T06:02:05.989Z,3.54
2023-02-19T06:04:38.871Z,3.57
2023-02-19T06:07:11.139Z,3.59
2023-02-19T06:09:43.365Z,3.63
2023-02-19T06:12:15.484Z,3.62
2023-02-19T06:14:47.646Z,3.57
2023-02-19T06:17:20.004Z,3.56
2023-02-19T06:19:52.239Z,3.57
2023-02-19T06:22:24.505Z,3.54
2023-02-19T06:24:56.714Z,3.53
2023-02-19T06:27:28.916Z,3.51
2023-02-19T06:30:01.441Z,3.49
2023-02-19T06:32:33.754Z,3.48
2023-02-19T06:35:06.558Z,3.48
2023-02-19T06:37:38.711Z,3.54
2023-02-19T06:40:12.107Z,3.56
2023-02-19T06:42:44.764Z,3.58
2023-02-19T06:45:17.264Z,3.60
2023-02-19T06:47:49.407Z,3.65
2023-02-19T06:50:21.652Z,3.67
2023-02-19T06:52:53.847Z,3.68
2023-02-19T06:55:26.082Z,3.66
2023-02-19T06:57:58.814Z,3.64
2023-02-19T07:00:31.099Z,3.63
2023-02-19T07:03:05.450Z,3.61
2023-02-19T07:05:38.157Z,3.59
2023-02-19T07:08:10.429Z,3.59
2023-02-19T07:10:42.926Z,3.60
2023-02-19T07:13:15.402Z,3.59
2023-02-19T07:15:47.622Z,3.59
2023-02-19T07:18:19.870Z,3.64
2023-02-19T07:20:52.143Z,3.67
2023-02-19T07:23:24.612Z,3.66
2023-02-19T07:25:56.882Z,3.68
2023-02-19T07:28:29.134Z,3.68
2023-02-19T07:31:05.048Z,3.68
2023-02-19T07:33:37.604Z,3.72
2023-02-19T07:36:11.905Z,3.75
2023-02-19T07:38:44.150Z,3.80
2023-02-19T07:41:16.502Z,3.80
2023-02-19T07:43:48.619Z,3.80
2023-02-19T07:46:22.247Z,3.80
2023-02-19T07:48:54.594Z,3.81
2023-02-19T07:51:26.991Z,3.82
2023-02-19T07:53:59.288Z,3.88
2023-02-19T07:56:31.559Z,3.89
2023-02-19T07:59:04.186Z,3.93
2023-02-19T08:01:54.256Z,3.99
2023-02-19T08:04:26.421Z,4.05
2023-02-19T08:06:58.629Z,4.10
2023-02-19T08:09:30.808Z,4.15
2023-02-19T08:12:21.048Z,4.20
2023-02-19T08:14:53.369Z,4.19
2023-02-19T08:17:26.216Z,4.22
2023-02-19T08:19:58.395Z,4.26
2023-02-19T08:22:30.591Z,4.28
2023-02-19T08:25:02.783Z,4.28
2023-02-19T08:27:34.978Z,4.29
2023-02-19T08:30:10.112Z,4.37
2023-02-19T08:32:42.338Z,4.42
2023-02-19T08:35:14.592Z,4.45
2023-02-19T08:37:46.771Z,4.52
2023-02-19T08:40:19.563Z,4.61
2023-02-19T08:42:52.034Z,4.66
2023-02-19T08:45:24.494Z,4.70
2023-02-19T08:47:56.649Z,4.76
2023-02-19T08:50:29.021Z,4.81
2023-02-19T08:53:01.753Z,4.88
2023-02-19T08:55:34.205Z,4.93
2023-02-19T08:58:07.006Z,4.95
2023-02-19T09:00:39.127Z,5.00
2023-02-19T09:03:11.348Z,5.05
2023-02-19T09:05:44.493Z,5.12
2023-02-19T09:08:17.065Z,5.11
2023-02-19T09:11:01.105Z,5.15
2023-02-19T09:13:33.333Z,5.24
2023-02-19T09:16:07.219Z,5.24
2023-02-19T09:18:39.747Z,5.25
2023-02-19T09:21:12.150Z,5.24
2023-02-19T09:23:45.156Z,5.19
2023-02-19T09:26:17.303Z,5.22
2023-02-19T09:28:49.594Z,5.30
2023-02-19T09:31:21.786Z,5.35
2023-02-19T09:33:54.116Z,5.39
2023-02-19T09:36:26.253Z,5.48
2023-02-19T09:39:00.521Z,5.52
2023-02-19T09:41:35.015Z,5.55
2023-02-19T09:44:11.437Z,5.60
2023-02-19T09:46:47.815Z,5.62
2023-02-19T09:49:26.049Z,5.60
2023-02-19T09:52:05.336Z,5.57
2023-02-19T09:54:39.543Z,5.54
2023-02-19T09:57:17.582Z,5.48
2023-02-19T09:59:52.792Z,5.43
2023-02-19T10:02:27.675Z,5.41
2023-02-19T10:04:58.737Z,5.49
2023-02-19T10:07:38.967Z,5.51
2023-02-19T10:10:26.989Z,5.55
2023-02-19T10:13:12.307Z,5.61
2023-02-19T10:15:47.089Z,5.62
2023-02-19T10:18:23.123Z,5.60
2023-02-19T10:20:56.882Z,5.57
2023-02-19T10:23:29.354Z,5.57
2023-02-19T10:26:02.289Z,5.65
2023-02-19T10:28:36.540Z,5.73
2023-02-19T10:31:20.119Z,5.76
2023-02-19T10:33:54.795Z,5.79
2023-02-19T10:36:33.926Z,5.78
2023-02-19T10:39:25.445Z,5.80
2023-02-19T10:41:58.927Z,5.82
2023-02-19T10:44:36.669Z,5.79
2023-02-19T10:47:09.285Z,5.82
2023-02-19T10:49:44.088Z,5.95
2023-02-19T10:52:19.522Z,6.13
2023-02-19T10:54:54.428Z,6.28
2023-02-19T10:57:33.494Z,6.40
2023-02-19T11:00:24.399Z,6.50
2023-02-19T11:03:20.551Z,6.60
2023-02-19T11:06:01.010Z,6.71
2023-02-19T11:08:36.150Z,6.78
2023-02-19T11:11:09.542Z,6.76
2023-02-19T11:13:44.877Z,6.72
2023-02-19T11:16:17.144Z,6.81
2023-02-19T11:18:57.449Z,6.94
2023-02-19T11:21:33.244Z,7.11
2023-02-19T11:24:06.241Z,7.27
2023-02-19T11:26:39.374Z,7.42
2023-02-19T11:29:22.676Z,7.55
2023-02-19T11:31:54.970Z,7.67
2023-02-19T11:34:31.709Z,7.76
2023-02-19T11:37:15.749Z,7.86
2023-02-19T11:39:50.687Z,7.95
2023-02-19T11:42:38.210Z,7.97
2023-02-19T11:45:31.039Z,7.88
2023-02-19T11:48:23.114Z,7.72
2023-02-19T11:51:10.245Z,7.60
2023-02-19T11:53:49.961Z,7.49
2023-02-19T11:56:28.030Z,7.38
2023-02-19T11:59:06.089Z,7.27
2023-02-19T12:01:52.763Z,7.13
2023-02-19T12:04:59.961Z,7.05
2023-02-19T12:08:06.721Z,7.10
2023-02-19T12:10:50.252Z,7.28
2023-02-19T12:13:32.568Z,7.34
2023-02-19T12:16:20.808Z,7.30
2023-02-19T12:19:19.053Z,7.21
2023-02-19T12:22:16.366Z,7.08
2023-02-19T12:25:11.012Z,6.97
2023-02-19T12:27:56.979Z,6.90
2023-02-19T12:30:59.661Z,6.81
2023-02-19T12:33:59.757Z,6.73
2023-02-19T12:36:41.394Z,6.62
2023-02-19T12:39:24.228Z,6.50
2023-02-19T12:42:08.542Z,6.40
2023-02-19T12:44:45.133Z,6.33
2023-02-19T12:47:21.642Z,6.30
2023-02-19T12:50:05.007Z,6.32
2023-02-19T12:52:41.633Z,6.36
2023-02-19T12:55:23.081Z,6.38
2023-02-19T12:57:56.706Z,6.46
2023-02-19T13:00:36.767Z,6.61
2023-02-19T13:03:21.106Z,6.77
2023-02-19T13:05:59.664Z,6.94
2023-02-19T13:08:42.082Z,7.09
2023-02-19T13:11:29.441Z,7.21
2023-02-19T13:14:05.631Z,7.30
2023-02-19T13:16:43.714Z,7.41
2023-02-19T13:19:15.917Z,7.51
2023-02-19T13:22:11.065Z,7.55
2023-02-19T13:24:46.801Z,7.55
2023-02-19T13:30:50.361Z,7.37
2023-02-19T13:33:37.961Z,7.29
2023-02-19T13:36:16.011Z,7.21
2023-02-19T13:38:51.314Z,7.23
2023-02-19T13:41:33.034Z,7.27
2023-02-19T13:44:08.790Z,7.32
2023-02-19T13:46:43.814Z,7.38
2023-02-19T13:49:46.092Z,7.45
2023-02-19T13:52:37.334Z,7.50
2023-02-19T13:55:44.323Z,7.55
2023-02-19T13:59:02.582Z,7.57
2023-02-19T14:02:13.980Z,7.55
2023-02-19T14:04:55.674Z,7.54
2023-02-19T14:07:56.735Z,7.53
2023-02-19T14:11:05.087Z,7.51
2023-02-19T14:13:59.489Z,7.50
2023-02-19T14:16:50.449Z,7.44
2023-02-19T14:20:01.167Z,7.37
2023-02-19T14:23:01.468Z,7.29
2023-02-19T14:25:45.962Z,7.18
2023-02-19T14:28:27.271Z,7.12
2023-02-19T14:31:02.176Z,7.06
2023-02-19T14:33:37.746Z,6.99
2023-02-19T14:36:20.590Z,6.91
2023-02-19T14:38:56.137Z,6.77
2023-02-19T14:41:30.114Z,6.68
2023-02-19T14:44:04.560Z,6.61
2023-02-19T14:46:43.098Z,6.54
2023-02-19T14:49:21.117Z,6.47
2023-02-19T14:51:57.559Z,6.42
2023-02-19T14:54:40.394Z,6.36
2023-02-19T14:57:19.613Z,6.30
2023-02-19T15:00:02.828Z,6.25
2023-02-19T15:02:43.230Z,6.20
2023-02-19T15:05:20.037Z,6.16
2023-02-19T15:07:53.931Z,6.10
2023-02-19T15:10:28.840Z,6.06
2023-02-19T15:13:01.268Z,6.01
2023-02-19T15:15:37.498Z,5.97
2023-02-19T15:18:18.183Z,5.94
2023-02-19T15:20:51.314Z,5.92
2023-02-19T15:23:26.402Z,5.89
2023-02-19T15:26:00.446Z,5.86
2023-02-19T15:28:36.677Z,5.82
2023-02-19T15:31:17.389Z,5.77
2023-02-19T15:33:54.458Z,5.71
2023-02-19T15:36:35.038Z,5.65
2023-02-19T15:39:07.338Z,5.59
2023-02-19T15:41:39.609Z,5.54
2023-02-19T15:44:28.687Z,5.49
2023-02-19T15:47:06.647Z,5.44
2023-02-19T15:49:47.460Z,5.39
2023-02-19T15:52:30.497Z,5.35
2023-02-19T15:55:10.193Z,5.32
2023-02-19T15:57:48.532Z,5.29
2023-02-19T16:00:33.448Z,5.25
2023-02-19T16:03:08.346Z,5.21
2023-02-19T16:05:41.928Z,5.18
2023-02-19T16:08:23.806Z,5.15
2023-02-19T16:10:59.003Z,5.10
2023-02-19T16:13:33.089Z,5.07
2023-02-19T16:16:15.476Z,5.04
2023-02-19T16:18:50.376Z,5.02
2023-02-19T16:21:25.944Z,5.01
2023-02-19T16:24:05.072Z,4.99
2023-02-19T16:26:44.102Z,4.99
2023-02-19T16:29:23.150Z,4.97
2023-02-19T16:31:58.473Z,4.94
2023-02-19T16:34:43.936Z,4.92
2023-02-19T16:37:37.324Z,4.89
2023-02-19T16:40:52.508Z,4.85
2023-02-19T16:43:42.017Z,4.82
2023-02-19T16:46:15.548Z,4.80
2023-02-19T16:48:48.073Z,4.76
2023-02-19T16:51:27.002Z,4.75
2023-02-19T16:53:59.194Z,4.73
2023-02-19T16:56:31.337Z,4.71
2023-02-19T16:59:03.477Z,4.70
2023-02-19T17:01:36.567Z,4.69
2023-02-19T17:04:12.789Z,4.67
2023-02-19T17:06:45.752Z,4.64
2023-02-19T17:09:17.963Z,4.60
2023-02-19T17:11:50.282Z,4.57
2023-02-19T17:14:22.635Z,4.54
2023-02-19T17:16:55.540Z,4.51
2023-02-19T17:19:28.077Z,4.47
2023-02-19T17:22:00.447Z,4.45
2023-02-19T17:24:32.612Z,4.42
2023-02-19T17:27:04.929Z,4.39
2023-02-19T17:29:37.306Z,4.36
2023-02-19T17:32:09.797Z,4.34
2023-02-19T17:34:42.153Z,4.32
2023-02-19T17:37:14.346Z,4.31
2023-02-19T17:39:46.692Z,4.29
2023-02-19T17:42:19.927Z,4.28
2023-02-19T17:44:53.409Z,4.28
2023-02-19T17:47:25.630Z,4.27
2023-02-19T17:49:57.806Z,4.26
2023-02-19T17:52:29.977Z,4.23
2023-02-19T17:55:02.133Z,4.22
2023-02-19T17:57:34.560Z,4.20
2023-02-19T18:00:08.730Z,4.18
2023-02-19T18:02:44.911Z,4.16
2023-02-19T18:05:17.645Z,4.14
2023-02-19T18:07:50.944Z,4.12
2023-02-19T18:10:25.372Z,4.12
2023-02-19T18:12:57.583Z,4.10
2023-02-19T18:15:29.906Z,4.07
2023-02-19T18:18:02.453Z,4.06
2023-02-19T18:20:35.184Z,4.03
2023-02-19T18:23:07.659Z,4.00
2023-02-19T18:25:39.802Z,3.98
2023-02-19T18:28:12.069Z,3.94
2023-02-19T18:30:44.452Z,3.92
2023-02-19T18:33:16.717Z,3.88
2023-02-19T18:35:50.416Z,3.87
2023-02-19T18:38:23.163Z,3.87
2023-02-19T18:40:57.323Z,3.87
2023-02-19T18:43:30.589Z,3.86
2023-02-19T18:46:03.460Z,3.84
2023-02-19T18:48:35.918Z,3.81
2023-02-19T18:51:12.474Z,3.81
2023-02-19T18:53:46.258Z,3.80
2023-02-19T18:56:18.596Z,3.78
2023-02-19T18:58:50.764Z,3.76
2023-02-19T19:01:23.311Z,3.74
2023-02-19T19:03:55.588Z,3.74
2023-02-19T19:06:27.887Z,3.73
2023-02-19T19:09:00.238Z,3.72
2023-02-19T19:11:32.482Z,3.70
2023-02-19T19:14:05.159Z,3.68
2023-02-19T19:16:37.637Z,3.67
2023-02-19T19:19:10.162Z,3.69
2023-02-19T19:21:42.494Z,3.69
2023-02-19T19:24:14.908Z,3.70
2023-02-19T19:26:48.305Z,3.71
2023-02-19T19:29:22.707Z,3.71
2023-02-19T19:31:55.007Z,3.69
2023-02-19T19:34:27.281Z,3.68
2023-02-19T19:36:59.634Z,3.66
2023-02-19T19:39:31.950Z,3.63
2023-02-19T19:42:04.066Z,3.61
2023-02-19T19:44:36.222Z,3.61
2023-02-19T19:47:08.751Z,3.60
2023-02-19T19:49:41.886Z,3.58
2023-02-19T19:52:14.213Z,3.57
2023-02-19T19:54:47.072Z,3.55
2023-02-19T19:57:19.803Z,3.54
2023-02-19T19:59:53.478Z,3.51
2023-02-19T20:02:25.902Z,3.45
2023-02-19T20:04:58.354Z,3.40
2023-02-19T20:07:30.586Z,3.35
2023-02-19T20:10:02.797Z,3.30
2023-02-19T20:12:36.078Z,3.27
2023-02-19T20:15:11.788Z,3.23
2023-02-19T20:17:44.493Z,3.17
2023-02-19T20:20:19.043Z,3.11
2023-02-19T20:22:50.365Z,3.07
2023-02-19T20:25:24.494Z,3.03
2023-02-19T20:27:57.183Z,2.99
2023-02-19T20:30:29.626Z,2.97
2023-02-19T20:33:02.416Z,2.94
2023-02-19T20:35:34.721Z,2.92
2023-02-19T20:38:07.059Z,2.89
2023-02-19T20:40:39.256Z,2.88
2023-02-19T20:43:11.475Z,2.96
2023-02-19T20:45:45.959Z,2.97
2023-02-19T20:48:19.625Z,2.97
2023-02-19T20:50:51.874Z,3.00
2023-02-19T20:53:24.193Z,3.03
2023-02-19T20:55:56.946Z,3.06
2023-02-19T20:58:29.224Z,3.07
2023-02-19T21:01:01.411Z,3.07
2023-02-19T21:03:33.684Z,3.04
2023-02-19T21:06:06.241Z,2.99
2023-02-19T21:08:38.486Z,2.99
2023-02-19T21:11:10.878Z,3.02
2023-02-19T21:13:45.018Z,2.98
2023-02-19T21:16:17.246Z,2.96
2023-02-19T21:18:49.494Z,2.93
2023-02-19T21:21:25.295Z,2.91
2023-02-19T21:23:59.387Z,2.89
2023-02-19T21:26:38.002Z,2.86
2023-02-19T21:29:12.189Z,2.84
2023-02-19T21:31:46.078Z,2.83
2023-02-19T21:34:20.033Z,2.83
2023-02-19T21:36:52.258Z,2.81
2023-02-19T21:39:26.372Z,2.78
2023-02-19T21:41:59.300Z,2.81
2023-02-19T21:44:31.499Z,2.91
2023-02-19T21:47:03.968Z,2.94
2023-02-19T21:49:36.056Z,2.95
2023-02-19T21:52:08.382Z,2.98
2023-02-19T21:54:40.804Z,2.98
2023-02-19T21:57:12.997Z,3.00
2023-02-19T21:59:45.140Z,3.01
2023-02-19T22:02:19.976Z,3.03
2023-02-19T22:04:56.144Z,3.04
2023-02-19T22:07:28.406Z,3.01
2023-02-19T22:10:00.749Z,2.99
2023-02-19T22:12:32.970Z,2.95
2023-02-19T22:15:05.418Z,2.91
2023-02-19T22:17:38.513Z,2.88
2023-02-19T22:20:11.857Z,2.83
2023-02-19T22:22:44.598Z,2.76
2023-02-19T22:25:16.893Z,2.70
2023-02-19T22:27:49.944Z,2.65
2023-02-19T22:30:22.855Z,2.62
2023-02-19T22:33:01.050Z,2.59
2023-02-19T22:35:33.336Z,2.55
2023-02-19T22:38:05.913Z,2.55
2023-02-19T22:40:38.133Z,2.57
2023-02-19T22:43:10.336Z,2.65
2023-02-19T22:45:43.324Z,2.68
2023-02-19T22:48:25.162Z,2.70
2023-02-19T22:51:02.574Z,2.75
2023-02-19T22:53:34.804Z,2.76
2023-02-19T22:56:07.662Z,2.75
2023-02-19T22:58:40.387Z,2.76
2023-02-19T23:01:13.476Z,2.77
2023-02-19T23:03:52.314Z,2.78
2023-02-19T23:06:27.234Z,2.76
2023-02-19T23:09:03.046Z,2.77
2023-02-19T23:11:37.393Z,2.77
2023-02-19T23:14:10.096Z,2.75
2023-02-19T23:16:42.380Z,2.73
2023-02-19T23:19:17.170Z,2.72
2023-02-19T23:21:50.057Z,2.69
2023-02-19T23:24:22.299Z,2.68
2023-02-19T23:26:56.004Z,2.68
2023-02-19T23:29:30.881Z,2.68
2023-02-19T23:32:03.236Z,2.70
2023-02-19T23:34:35.532Z,2.76
2023-02-19T23:37:07.722Z,2.76
2023-02-19T23:39:39.842Z,2.78
2023-02-19T23:42:17.357Z,2.84
2023-02-19T23:44:50.138Z,2.88
2023-02-19T23:47:23.130Z,2.89
2023-02-19T23:49:55.496Z,2.90
2023-02-19T23:52:27.791Z,2.86
2023-02-19T23:55:00.013Z,2.83
2023-02-19T23:57:32.289Z,2.79
